sensor_id;sensor_type;location;lat;lon;timestamp;pressure;altitude;pressure_sealevel;temperature;humidity
36386;BME280;24125;47.482;8.770;2023-02-04T00:00:37;97732.78;;;10.38;62.53
36386;BME280;24125;47.482;8.770;2023-02-04T00:03:10;97718.91;;;10.36;62.56
36386;BME280;24125;47.482;8.770;2023-02-04T00:05:44;97719.47;;;10.33;62.77
36386;BME280;24125;47.482;8.770;2023-02-04T00:08:17;97724.28;;;10.31;62.84
36386;BME280;24125;47.482;8.770;2023-02-04T00:10:51;97728.03;;;10.30;62.76
36386;BME280;24125;47.482;8.770;2023-02-04T00:13:24;97721.13;;;10.29;62.77
36386;BME280;24125;47.482;8.770;2023-02-04T00:15:57;97716.88;;;10.28;62.82
36386;BME280;24125;47.482;8.770;2023-02-04T00:18:30;97715.78;;;10.29;62.97
36386;BME280;24125;47.482;8.770;2023-02-04T00:21:04;97712.31;;;10.28;63.02
36386;BME280;24125;47.482;8.770;2023-02-04T00:23:37;97719.81;;;10.26;63.13
36386;BME280;24125;47.482;8.770;2023-02-04T00:26:10;97725.44;;;10.25;63.09
36386;BME280;24125;47.482;8.770;2023-02-04T00:28:43;97721.72;;;10.20;63.18
36386;BME280;24125;47.482;8.770;2023-02-04T00:31:16;97719.06;;;10.20;63.09
36386;BME280;24125;47.482;8.770;2023-02-04T00:33:49;97713.25;;;10.18;63.13
36386;BME280;24125;47.482;8.770;2023-02-04T00:36:24;97703.34;;;10.19;63.47
36386;BME280;24125;47.482;8.770;2023-02-04T00:38:57;97699.34;;;10.16;63.75
36386;BME280;24125;47.482;8.770;2023-02-04T00:41:30;97697.75;;;10.15;63.73
36386;BME280;24125;47.482;8.770;2023-02-04T00:44:03;97695.38;;;10.14;63.48
36386;BME280;24125;47.482;8.770;2023-02-04T00:46:36;97701.78;;;10.13;63.38
36386;BME280;24125;47.482;8.770;2023-02-04T00:49:09;97708.19;;;10.12;63.64
36386;BME280;24125;47.482;8.770;2023-02-04T00:51:44;97718.09;;;10.11;63.73
36386;BME280;24125;47.482;8.770;2023-02-04T00:54:17;97700.78;;;10.09;63.79
36386;BME280;24125;47.482;8.770;2023-02-04T00:56:50;97703.16;;;10.10;63.79
36386;BME280;24125;47.482;8.770;2023-02-04T00:59:23;97717.59;;;10.09;63.70
36386;BME280;24125;47.482;8.770;2023-02-04T01:01:56;97715.19;;;10.08;63.87
36386;BME280;24125;47.482;8.770;2023-02-04T01:04:29;97719.44;;;10.09;63.92
36386;BME280;24125;47.482;8.770;2023-02-04T01:07:03;97710.66;;;10.08;63.70
36386;BME280;24125;47.482;8.770;2023-02-04T01:09:36;97707.47;;;10.06;63.97
36386;BME280;24125;47.482;8.770;2023-02-04T01:12:09;97705.06;;;10.05;63.75
36386;BME280;24125;47.482;8.770;2023-02-04T01:14:42;97717.06;;;10.07;64.01
36386;BME280;24125;47.482;8.770;2023-02-04T01:17:15;97717.06;;;10.07;63.77
36386;BME280;24125;47.482;8.770;2023-02-04T01:19:49;97720.25;;;10.09;63.88
36386;BME280;24125;47.482;8.770;2023-02-04T01:22:24;97720.25;;;10.09;63.76
36386;BME280;24125;47.482;8.770;2023-02-04T01:24:56;97715.72;;;10.10;63.81
36386;BME280;24125;47.482;8.770;2023-02-04T01:27:29;97724.78;;;10.09;63.69
36386;BME280;24125;47.482;8.770;2023-02-04T01:30:03;97723.72;;;10.10;63.64
36386;BME280;24125;47.482;8.770;2023-02-04T01:32:36;97723.72;;;10.10;63.71
36386;BME280;24125;47.482;8.770;2023-02-04T01:35:09;97713.84;;;10.10;64.14
36386;BME280;24125;47.482;8.770;2023-02-04T01:37:44;97727.66;;;10.12;63.66
36386;BME280;24125;47.482;8.770;2023-02-04T01:40:17;97731.13;;;10.13;64.05
36386;BME280;24125;47.482;8.770;2023-02-04T01:42:50;97721.25;;;10.13;64.08
36386;BME280;24125;47.482;8.770;2023-02-04T01:45:24;97718.03;;;10.16;63.68
36386;BME280;24125;47.482;8.770;2023-02-04T01:47:56;97712.69;;;10.16;63.75
36386;BME280;24125;47.482;8.770;2023-02-04T01:50:29;97719.66;;;10.17;63.79
36386;BME280;24125;47.482;8.770;2023-02-04T01:53:05;97718.28;;;10.20;63.75
36386;BME280;24125;47.482;8.770;2023-02-04T01:55:37;97707.91;;;10.18;63.77
36386;BME280;24125;47.482;8.770;2023-02-04T01:58:11;97707.63;;;10.20;63.61
36386;BME280;24125;47.482;8.770;2023-02-04T02:00:44;97714.25;;;10.23;64.06
36386;BME280;24125;47.482;8.770;2023-02-04T02:03:17;97708.91;;;10.23;63.75
36386;BME280;24125;47.482;8.770;2023-02-04T02:05:52;97702.22;;;10.25;63.71
36386;BME280;24125;47.482;8.770;2023-02-04T02:08:27;97700.34;;;10.26;63.62
36386;BME280;24125;47.482;8.770;2023-02-04T02:11:00;97708.88;;;10.28;63.58
36386;BME280;24125;47.482;8.770;2023-02-04T02:13:34;97711.53;;;10.28;63.79
36386;BME280;24125;47.482;8.770;2023-02-04T02:16:07;97710.16;;;10.30;63.83
36386;BME280;24125;47.482;8.770;2023-02-04T02:18:40;97696.00;;;10.30;63.59
36386;BME280;24125;47.482;8.770;2023-02-04T02:21:15;97699.19;;;10.32;63.63
36386;BME280;24125;47.482;8.770;2023-02-04T02:23:52;97694.38;;;10.34;63.51
36386;BME280;24125;47.482;8.770;2023-02-04T02:26:27;97696.22;;;10.33;63.59
36386;BME280;24125;47.482;8.770;2023-02-04T02:29:00;97691.69;;;10.34;63.76
36386;BME280;24125;47.482;8.770;2023-02-04T02:31:33;97687.94;;;10.35;63.47
36386;BME280;24125;47.482;8.770;2023-02-04T02:34:06;97690.34;;;10.36;63.77
36386;BME280;24125;47.482;8.770;2023-02-04T02:36:40;97686.88;;;10.36;63.91
36386;BME280;24125;47.482;8.770;2023-02-04T02:39:15;97691.94;;;10.37;63.76
36386;BME280;24125;47.482;8.770;2023-02-04T02:41:48;97682.31;;;10.36;63.78
36386;BME280;24125;47.482;8.770;2023-02-04T02:44:22;97679.38;;;10.38;64.34
36386;BME280;24125;47.482;8.770;2023-02-04T02:46:56;97673.72;;;10.39;63.56
36386;BME280;24125;47.482;8.770;2023-02-04T02:49:30;97666.22;;;10.41;63.75
36386;BME280;24125;47.482;8.770;2023-02-04T02:52:05;97663.56;;;10.41;63.75
36386;BME280;24125;47.482;8.770;2023-02-04T02:54:43;97669.94;;;10.45;63.44
36386;BME280;24125;47.482;8.770;2023-02-04T02:57:18;97669.13;;;10.45;63.60
36386;BME280;24125;47.482;8.770;2023-02-04T02:59:52;97678.50;;;10.42;63.81
36386;BME280;24125;47.482;8.770;2023-02-04T03:02:25;97684.13;;;10.41;63.99
36386;BME280;24125;47.482;8.770;2023-02-04T03:04:58;97686.22;;;10.44;64.08
36386;BME280;24125;47.482;8.770;2023-02-04T03:07:32;97697.19;;;10.42;63.98
36386;BME280;24125;47.482;8.770;2023-02-04T03:10:07;97696.91;;;10.44;63.59
36386;BME280;24125;47.482;8.770;2023-02-04T03:12:40;97686.22;;;10.44;63.94
36386;BME280;24125;47.482;8.770;2023-02-04T03:15:13;97690.50;;;10.45;64.05
36386;BME280;24125;47.482;8.770;2023-02-04T03:17:46;97699.28;;;10.45;64.16
36386;BME280;24125;47.482;8.770;2023-02-04T03:20:22;97691.28;;;10.45;63.95
36386;BME280;24125;47.482;8.770;2023-02-04T03:22:57;97688.63;;;10.45;63.86
36386;BME280;24125;47.482;8.770;2023-02-04T03:25:34;97692.56;;;10.48;63.99
36386;BME280;24125;47.482;8.770;2023-02-04T03:28:08;97701.66;;;10.47;64.00
36386;BME280;24125;47.482;8.770;2023-02-04T03:30:41;97689.91;;;10.48;64.38
36386;BME280;24125;47.482;8.770;2023-02-04T03:33:14;97696.31;;;10.47;63.98
36386;BME280;24125;47.482;8.770;2023-02-04T03:35:47;97700.56;;;10.48;64.39
36386;BME280;24125;47.482;8.770;2023-02-04T03:38:20;97703.25;;;10.48;64.53
36386;BME280;24125;47.482;8.770;2023-02-04T03:40:54;97700.28;;;10.49;64.15
36386;BME280;24125;47.482;8.770;2023-02-04T03:43:27;97692.88;;;10.46;64.19
36386;BME280;24125;47.482;8.770;2023-02-04T03:46:00;97690.97;;;10.47;64.30
36386;BME280;24125;47.482;8.770;2023-02-04T03:48:33;97699.50;;;10.49;64.62
36386;BME280;24125;47.482;8.770;2023-02-04T03:51:06;97706.22;;;10.46;64.11
36386;BME280;24125;47.482;8.770;2023-02-04T03:53:38;97704.84;;;10.49;64.34
36386;BME280;24125;47.482;8.770;2023-02-04T03:56:13;97701.88;;;10.50;63.88
36386;BME280;24125;47.482;8.770;2023-02-04T03:58:46;97698.41;;;10.50;64.44
36386;BME280;24125;47.482;8.770;2023-02-04T04:01:20;97697.91;;;10.48;64.23
36386;BME280;24125;47.482;8.770;2023-02-04T04:03:53;97689.63;;;10.49;64.57
36386;BME280;24125;47.482;8.770;2023-02-04T04:06:26;97693.06;;;10.50;64.28
36386;BME280;24125;47.482;8.770;2023-02-04T04:08:59;97693.06;;;10.50;64.39
36386;BME280;24125;47.482;8.770;2023-02-04T04:11:34;97697.06;;;10.52;64.21
36386;BME280;24125;47.482;8.770;2023-02-04T04:14:07;97708.53;;;10.53;64.45
36386;BME280;24125;47.482;8.770;2023-02-04T04:16:40;97710.13;;;10.54;64.54
36386;BME280;24125;47.482;8.770;2023-02-04T04:19:12;97697.56;;;10.54;64.54
36386;BME280;24125;47.482;8.770;2023-02-04T04:21:45;97703.13;;;10.58;64.86
36386;BME280;24125;47.482;8.770;2023-02-04T04:24:18;97704.44;;;10.61;64.71
36386;BME280;24125;47.482;8.770;2023-02-04T04:26:53;97706.81;;;10.62;65.08
36386;BME280;24125;47.482;8.770;2023-02-04T04:29:26;97703.06;;;10.63;65.02
36386;BME280;24125;47.482;8.770;2023-02-04T04:31:59;97694.47;;;10.66;64.86
36386;BME280;24125;47.482;8.770;2023-02-04T04:34:31;97689.91;;;10.67;64.92
36386;BME280;24125;47.482;8.770;2023-02-04T04:37:05;97691.50;;;10.68;64.91
36386;BME280;24125;47.482;8.770;2023-02-04T04:39:37;97699.22;;;10.69;64.57
36386;BME280;24125;47.482;8.770;2023-02-04T04:42:12;97693.91;;;10.69;64.74
36386;BME280;24125;47.482;8.770;2023-02-04T04:44:45;97679.47;;;10.70;64.85
36386;BME280;24125;47.482;8.770;2023-02-04T04:47:18;97684.81;;;10.70;64.40
36386;BME280;24125;47.482;8.770;2023-02-04T04:49:51;97693.59;;;10.71;64.16
36386;BME280;24125;47.482;8.770;2023-02-04T04:52:24;97701.63;;;10.71;64.67
36386;BME280;24125;47.482;8.770;2023-02-04T04:54:57;97700.81;;;10.70;64.47
36386;BME280;24125;47.482;8.770;2023-02-04T04:57:31;97700.81;;;10.70;64.65
36386;BME280;24125;47.482;8.770;2023-02-04T05:00:05;97700.81;;;10.70;64.64
36386;BME280;24125;47.482;8.770;2023-02-04T05:02:39;97702.69;;;10.70;64.53
36386;BME280;24125;47.482;8.770;2023-02-04T05:05:12;97697.06;;;10.71;64.48
36386;BME280;24125;47.482;8.770;2023-02-04T05:07:45;97702.91;;;10.73;64.51
36386;BME280;24125;47.482;8.770;2023-02-04T05:10:19;97694.09;;;10.73;64.52
36386;BME280;24125;47.482;8.770;2023-02-04T05:12:53;97699.94;;;10.75;64.69
36386;BME280;24125;47.482;8.770;2023-02-04T05:15:26;97692.72;;;10.75;64.84
36386;BME280;24125;47.482;8.770;2023-02-04T05:17:59;97702.34;;;10.76;64.52
36386;BME280;24125;47.482;8.770;2023-02-04T05:20:32;97704.72;;;10.78;64.87
36386;BME280;24125;47.482;8.770;2023-02-04T05:23:05;97697.50;;;10.78;64.77
36386;BME280;24125;47.482;8.770;2023-02-04T05:25:38;97699.91;;;10.80;64.66
36386;BME280;24125;47.482;8.770;2023-02-04T05:28:12;97697.69;;;10.82;64.79
36386;BME280;24125;47.482;8.770;2023-02-04T05:30:45;97694.25;;;10.81;65.01
36386;BME280;24125;47.482;8.770;2023-02-04T05:33:18;97687.81;;;10.82;64.56
36386;BME280;24125;47.482;8.770;2023-02-04T05:35:51;97699.81;;;10.85;64.41
36386;BME280;24125;47.482;8.770;2023-02-04T05:38:24;97700.31;;;10.87;64.49
36386;BME280;24125;47.482;8.770;2023-02-04T05:40:57;97693.91;;;10.88;64.96
36386;BME280;24125;47.482;8.770;2023-02-04T05:43:31;97700.84;;;10.89;64.77
36386;BME280;24125;47.482;8.770;2023-02-04T05:46:05;97702.38;;;10.90;64.97
36386;BME280;24125;47.482;8.770;2023-02-04T05:48:38;97713.88;;;10.90;64.90
36386;BME280;24125;47.482;8.770;2023-02-04T05:51:11;97703.69;;;10.92;65.12
36386;BME280;24125;47.482;8.770;2023-02-04T05:53:44;97701.03;;;10.92;65.34
36386;BME280;24125;47.482;8.770;2023-02-04T05:56:17;97696.47;;;10.93;65.17
36386;BME280;24125;47.482;8.770;2023-02-04T05:58:51;97707.97;;;10.93;64.67
36386;BME280;24125;47.482;8.770;2023-02-04T06:01:24;97714.09;;;10.94;65.45
36386;BME280;24125;47.482;8.770;2023-02-04T06:03:57;97710.63;;;10.93;65.47
36386;BME280;24125;47.482;8.770;2023-02-04T06:06:30;97714.63;;;10.96;64.90
36386;BME280;24125;47.482;8.770;2023-02-04T06:09:03;97714.09;;;10.94;65.03
36386;BME280;24125;47.482;8.770;2023-02-04T06:11:36;97722.91;;;10.94;65.10
36386;BME280;24125;47.482;8.770;2023-02-04T06:14:10;97714.63;;;10.96;65.41
36386;BME280;24125;47.482;8.770;2023-02-04T06:16:43;97726.91;;;10.97;65.08
36386;BME280;24125;47.482;8.770;2023-02-04T06:19:16;97733.84;;;10.98;65.20
36386;BME280;24125;47.482;8.770;2023-02-04T06:21:49;97734.13;;;10.96;65.24
36386;BME280;24125;47.482;8.770;2023-02-04T06:24:22;97730.84;;;11.00;65.12
36386;BME280;24125;47.482;8.770;2023-02-04T06:26:55;97725.50;;;11.00;65.68
36386;BME280;24125;47.482;8.770;2023-02-04T06:29:29;97722.25;;;11.03;65.29
36386;BME280;24125;47.482;8.770;2023-02-04T06:32:02;97718.78;;;11.02;65.02
36386;BME280;24125;47.482;8.770;2023-02-04T06:34:35;97719.59;;;11.03;65.51
36386;BME280;24125;47.482;8.770;2023-02-04T06:37:08;97718.50;;;11.04;65.36
36386;BME280;24125;47.482;8.770;2023-02-04T06:39:41;97723.84;;;11.04;65.19
36386;BME280;24125;47.482;8.770;2023-02-04T06:42:15;97719.31;;;11.04;65.46
36386;BME280;24125;47.482;8.770;2023-02-04T06:44:49;97723.28;;;11.07;66.14
36386;BME280;24125;47.482;8.770;2023-02-04T06:47:22;97722.78;;;11.05;65.48
36386;BME280;24125;47.482;8.770;2023-02-04T06:49:55;97722.78;;;11.05;65.36
36386;BME280;24125;47.482;8.770;2023-02-04T06:52:28;97726.53;;;11.04;66.23
36386;BME280;24125;47.482;8.770;2023-02-04T06:55:00;97728.41;;;11.03;65.67
36386;BME280;24125;47.482;8.770;2023-02-04T06:57:33;97731.06;;;11.03;65.62
36386;BME280;24125;47.482;8.770;2023-02-04T07:00:10;97738.28;;;11.03;65.65
36386;BME280;24125;47.482;8.770;2023-02-04T07:02:43;97732.44;;;11.01;65.91
36386;BME280;24125;47.482;8.770;2023-02-04T07:05:17;97738.56;;;11.01;66.07
36386;BME280;24125;47.482;8.770;2023-02-04T07:07:49;97736.19;;;11.00;66.17
36386;BME280;24125;47.482;8.770;2023-02-04T07:10:23;97743.72;;;10.98;66.17
36386;BME280;24125;47.482;8.770;2023-02-04T07:12:55;97746.09;;;10.99;65.75
36386;BME280;24125;47.482;8.770;2023-02-04T07:15:30;97750.44;;;10.95;66.53
36386;BME280;24125;47.482;8.770;2023-02-04T07:18:03;97758.16;;;10.96;66.36
36386;BME280;24125;47.482;8.770;2023-02-04T07:20:36;97754.19;;;10.94;66.13
36386;BME280;24125;47.482;8.770;2023-02-04T07:23:09;97756.56;;;10.95;66.03
36386;BME280;24125;47.482;8.770;2023-02-04T07:25:41;97758.44;;;10.95;66.41
36386;BME280;24125;47.482;8.770;2023-02-04T07:28:15;97752.31;;;10.94;66.19
36386;BME280;24125;47.482;8.770;2023-02-04T07:30:50;97750.63;;;10.98;66.55
36386;BME280;24125;47.482;8.770;2023-02-04T07:33:23;97750.63;;;10.98;66.40
36386;BME280;24125;47.482;8.770;2023-02-04T07:35:56;97757.56;;;11.00;66.60
36386;BME280;24125;47.482;8.770;2023-02-04T07:38:29;97755.69;;;11.00;66.58
36386;BME280;24125;47.482;8.770;2023-02-04T07:41:02;97761.56;;;11.02;66.41
36386;BME280;24125;47.482;8.770;2023-02-04T07:43:35;97757.28;;;11.01;66.99
36386;BME280;24125;47.482;8.770;2023-02-04T07:46:10;97762.34;;;11.03;66.76
36386;BME280;24125;47.482;8.770;2023-02-04T07:48:42;97754.03;;;11.04;66.95
36386;BME280;24125;47.482;8.770;2023-02-04T07:51:15;97763.94;;;11.04;66.68
36386;BME280;24125;47.482;8.770;2023-02-04T07:53:48;97761.78;;;11.06;66.86
36386;BME280;24125;47.482;8.770;2023-02-04T07:56:21;97771.06;;;11.08;66.62
36386;BME280;24125;47.482;8.770;2023-02-04T07:58:54;97769.19;;;11.09;66.59
36386;BME280;24125;47.482;8.770;2023-02-04T08:01:29;97773.19;;;11.11;66.54
36386;BME280;24125;47.482;8.770;2023-02-04T08:04:02;97768.91;;;11.10;66.78
36386;BME280;24125;47.482;8.770;2023-02-04T08:06:35;97764.38;;;11.11;66.75
36386;BME280;24125;47.482;8.770;2023-02-04T08:09:08;97767.84;;;11.11;66.55
36386;BME280;24125;47.482;8.770;2023-02-04T08:11:41;97770.22;;;11.13;66.50
36386;BME280;24125;47.482;8.770;2023-02-04T08:14:13;97778.75;;;11.15;65.99
36386;BME280;24125;47.482;8.770;2023-02-04T08:16:48;97782.22;;;11.15;66.24
36386;BME280;24125;47.482;8.770;2023-02-04T08:19:21;97783.00;;;11.16;66.55
36386;BME280;24125;47.482;8.770;2023-02-04T08:21:54;97782.22;;;11.15;66.79
36386;BME280;24125;47.482;8.770;2023-02-04T08:24:27;97780.03;;;11.17;66.32
36386;BME280;24125;47.482;8.770;2023-02-04T08:27:00;97785.09;;;11.19;66.35
36386;BME280;24125;47.482;8.770;2023-02-04T08:29:33;97788.00;;;11.22;66.05
36386;BME280;24125;47.482;8.770;2023-02-04T08:32:07;97794.34;;;11.26;67.06
36386;BME280;24125;47.482;8.770;2023-02-04T08:34:40;97789.50;;;11.28;66.34
36386;BME280;24125;47.482;8.770;2023-02-04T08:37:14;97800.44;;;11.32;66.84
36386;BME280;24125;47.482;8.770;2023-02-04T08:39:47;97784.88;;;11.34;66.42
36386;BME280;24125;47.482;8.770;2023-02-04T08:42:20;97803.53;;;11.39;66.31
36386;BME280;24125;47.482;8.770;2023-02-04T08:44:53;97785.31;;;11.41;67.00
36386;BME280;24125;47.482;8.770;2023-02-04T08:47:27;97781.75;;;11.46;66.81
36386;BME280;24125;47.482;8.770;2023-02-04T08:50:00;97788.41;;;11.48;66.52
36386;BME280;24125;47.482;8.770;2023-02-04T08:52:34;97789.69;;;11.51;66.36
36386;BME280;24125;47.482;8.770;2023-02-04T08:55:07;97792.28;;;11.56;66.62
36386;BME280;24125;47.482;8.770;2023-02-04T08:57:40;97785.56;;;11.58;66.27
36386;BME280;24125;47.482;8.770;2023-02-04T09:00:14;97783.66;;;11.59;66.63
36386;BME280;24125;47.482;8.770;2023-02-04T09:02:48;97803.41;;;11.63;66.55
36386;BME280;24125;47.482;8.770;2023-02-04T09:05:21;97799.94;;;11.62;66.25
36386;BME280;24125;47.482;8.770;2023-02-04T09:07:54;97803.41;;;11.63;66.59
36386;BME280;24125;47.482;8.770;2023-02-04T09:10:27;97805.50;;;11.66;66.38
36386;BME280;24125;47.482;8.770;2023-02-04T09:13:00;97802.03;;;11.65;66.86
36386;BME280;24125;47.482;8.770;2023-02-04T09:15:33;97803.31;;;11.68;66.85
36386;BME280;24125;47.482;8.770;2023-02-04T09:18:08;97812.66;;;11.70;66.79
36386;BME280;24125;47.482;8.770;2023-02-04T09:20:47;97813.94;;;11.73;66.38
36386;BME280;24125;47.482;8.770;2023-02-04T09:23:20;97811.81;;;11.75;66.64
36386;BME280;24125;47.482;8.770;2023-02-04T09:25:54;97811.50;;;11.77;66.96
36386;BME280;24125;47.482;8.770;2023-02-04T09:28:27;97812.00;;;11.79;67.04
36386;BME280;24125;47.482;8.770;2023-02-04T09:31:00;97808.75;;;11.82;66.30
36386;BME280;24125;47.482;8.770;2023-02-04T09:33:36;97815.41;;;11.84;66.70
36386;BME280;24125;47.482;8.770;2023-02-04T09:36:09;97818.09;;;11.84;66.65
36386;BME280;24125;47.482;8.770;2023-02-04T09:38:42;97824.72;;;11.87;67.28
36386;BME280;24125;47.482;8.770;2023-02-04T09:41:15;97812.63;;;11.89;66.75
36386;BME280;24125;47.482;8.770;2023-02-04T09:43:48;97821.97;;;11.92;66.83
36386;BME280;24125;47.482;8.770;2023-02-04T09:46:23;97822.97;;;11.96;66.94
36386;BME280;24125;47.482;8.770;2023-02-04T09:49:00;97820.69;;;12.03;67.77
36386;BME280;24125;47.482;8.770;2023-02-04T09:51:34;97824.09;;;12.08;67.21
36386;BME280;24125;47.482;8.770;2023-02-04T09:54:11;97829.56;;;12.17;67.26
36386;BME280;24125;47.482;8.770;2023-02-04T09:56:45;97820.06;;;12.25;67.79
36386;BME280;24125;47.482;8.770;2023-02-04T09:59:20;97817.47;;;12.33;67.37
36386;BME280;24125;47.482;8.770;2023-02-04T10:01:56;97837.63;;;12.44;66.83
36386;BME280;24125;47.482;8.770;2023-02-04T10:04:32;97844.19;;;12.52;66.92
36386;BME280;24125;47.482;8.770;2023-02-04T10:07:08;97836.53;;;12.59;66.67
36386;BME280;24125;47.482;8.770;2023-02-04T10:09:43;97829.00;;;12.61;66.04
36386;BME280;24125;47.482;8.770;2023-02-04T10:12:17;97826.81;;;12.63;66.34
36386;BME280;24125;47.482;8.770;2023-02-04T10:14:50;97839.63;;;12.66;65.60
36386;BME280;24125;47.482;8.770;2023-02-04T10:17:23;97849.53;;;12.66;65.57
36386;BME280;24125;47.482;8.770;2023-02-04T10:19:58;97850.34;;;12.66;65.33
36386;BME280;24125;47.482;8.770;2023-02-04T10:22:31;97852.81;;;12.63;64.99
36386;BME280;24125;47.482;8.770;2023-02-04T10:25:11;97855.00;;;12.61;64.48
36386;BME280;24125;47.482;8.770;2023-02-04T10:27:49;97859.66;;;12.55;64.72
36386;BME280;24125;47.482;8.770;2023-02-04T10:30:24;97852.53;;;12.51;65.21
36386;BME280;24125;47.482;8.770;2023-02-04T10:32:58;97843.47;;;12.46;65.56
36386;BME280;24125;47.482;8.770;2023-02-04T10:35:43;97836.03;;;12.43;64.83
36386;BME280;24125;47.482;8.770;2023-02-04T10:38:17;97846.03;;;12.38;65.27
36386;BME280;24125;47.482;8.770;2023-02-04T10:40:59;97846.38;;;12.36;65.45
36386;BME280;24125;47.482;8.770;2023-02-04T10:43:33;97845.84;;;12.34;65.79
36386;BME280;24125;47.482;8.770;2023-02-04T10:46:06;97845.34;;;12.32;65.09
36386;BME280;24125;47.482;8.770;2023-02-04T10:48:40;97840.56;;;12.29;64.43
36386;BME280;24125;47.482;8.770;2023-02-04T10:51:14;97841.97;;;12.27;64.90
36386;BME280;24125;47.482;8.770;2023-02-04T10:53:47;97844.22;;;12.20;64.86
36386;BME280;24125;47.482;8.770;2023-02-04T10:56:38;97835.59;;;12.09;64.06
36386;BME280;24125;47.482;8.770;2023-02-04T10:59:20;97833.00;;;12.04;64.74
36386;BME280;24125;47.482;8.770;2023-02-04T11:01:55;97833.16;;;11.94;64.32
36386;BME280;24125;47.482;8.770;2023-02-04T11:04:28;97829.88;;;11.83;65.11
36386;BME280;24125;47.482;8.770;2023-02-04T11:07:06;97835.91;;;11.75;64.91
36386;BME280;24125;47.482;8.770;2023-02-04T11:09:42;97834.13;;;11.65;65.13
36386;BME280;24125;47.482;8.770;2023-02-04T11:12:19;97843.31;;;11.59;64.96
36386;BME280;24125;47.482;8.770;2023-02-04T11:14:57;97841.53;;;11.55;65.44
36386;BME280;24125;47.482;8.770;2023-02-04T11:17:31;97840.81;;;11.49;65.88
36386;BME280;24125;47.482;8.770;2023-02-04T11:20:15;97845.38;;;11.49;66.12
36386;BME280;24125;47.482;8.770;2023-02-04T11:22:49;97837.13;;;11.45;65.92
36386;BME280;24125;47.482;8.770;2023-02-04T11:25:30;97844.06;;;11.46;66.60
36386;BME280;24125;47.482;8.770;2023-02-04T11:28:12;97847.00;;;11.45;65.87
36386;BME280;24125;47.482;8.770;2023-02-04T11:30:57;97835.53;;;11.44;66.67
36386;BME280;24125;47.482;8.770;2023-02-04T11:33:37;97843.03;;;11.42;66.14
36386;BME280;24125;47.482;8.770;2023-02-04T11:36:13;97842.84;;;11.39;66.48
36386;BME280;24125;47.482;8.770;2023-02-04T11:38:49;97845.50;;;11.39;66.51
36386;BME280;24125;47.482;8.770;2023-02-04T11:41:24;97840.72;;;11.35;66.71
36386;BME280;24125;47.482;8.770;2023-02-04T11:43:58;97843.69;;;11.34;66.73
36386;BME280;24125;47.482;8.770;2023-02-04T11:46:32;97834.06;;;11.33;66.77
36386;BME280;24125;47.482;8.770;2023-02-04T11:49:15;97838.28;;;11.39;65.66
36386;BME280;24125;47.482;8.770;2023-02-04T11:51:49;97834.22;;;11.42;66.37
36386;BME280;24125;47.482;8.770;2023-02-04T11:54:23;97839.22;;;11.48;66.20
36386;BME280;24125;47.482;8.770;2023-02-04T11:56:58;97835.38;;;11.54;65.92
36386;BME280;24125;47.482;8.770;2023-02-04T11:59:31;97843.81;;;11.61;66.23
36386;BME280;24125;47.482;8.770;2023-02-04T12:02:12;97842.69;;;11.67;65.91
36386;BME280;24125;47.482;8.770;2023-02-04T12:04:50;97843.94;;;11.75;65.80
36386;BME280;24125;47.482;8.770;2023-02-04T12:07:26;97848.91;;;11.82;65.96
36386;BME280;24125;47.482;8.770;2023-02-04T12:10:10;97850.91;;;11.90;65.42
36386;BME280;24125;47.482;8.770;2023-02-04T12:12:48;97854.50;;;11.99;65.25
36386;BME280;24125;47.482;8.770;2023-02-04T12:15:23;97856.00;;;12.05;65.23
36386;BME280;24125;47.482;8.770;2023-02-04T12:18:01;97852.66;;;12.13;65.36
36386;BME280;24125;47.482;8.770;2023-02-04T12:20:35;97853.84;;;12.21;64.89
36386;BME280;24125;47.482;8.770;2023-02-04T12:23:08;97848.59;;;12.29;64.67
36386;BME280;24125;47.482;8.770;2023-02-04T12:25:42;97854.88;;;12.38;64.58
36386;BME280;24125;47.482;8.770;2023-02-04T12:28:15;97841.13;;;12.45;64.16
36386;BME280;24125;47.482;8.770;2023-02-04T12:30:48;97852.69;;;12.54;64.40
36386;BME280;24125;47.482;8.770;2023-02-04T12:33:21;97846.97;;;12.61;63.68
36386;BME280;24125;47.482;8.770;2023-02-04T12:35:54;97839.81;;;12.70;63.49
36386;BME280;24125;47.482;8.770;2023-02-04T12:38:27;97842.59;;;12.78;63.61
36386;BME280;24125;47.482;8.770;2023-02-04T12:41:01;97847.44;;;12.90;63.31
36386;BME280;24125;47.482;8.770;2023-02-04T12:43:34;97836.81;;;12.99;63.42
36386;BME280;24125;47.482;8.770;2023-02-04T12:46:07;97837.09;;;13.11;63.36
36386;BME280;24125;47.482;8.770;2023-02-04T12:48:40;97834.41;;;13.25;63.27
36386;BME280;24125;47.482;8.770;2023-02-04T12:51:13;97840.06;;;13.37;62.85
36386;BME280;24125;47.482;8.770;2023-02-04T12:53:46;97841.09;;;13.49;62.55
36386;BME280;24125;47.482;8.770;2023-02-04T12:56:21;97839.16;;;13.64;61.59
36386;BME280;24125;47.482;8.770;2023-02-04T12:58:54;97843.81;;;13.72;61.59
36386;BME280;24125;47.482;8.770;2023-02-04T13:01:28;97849.72;;;13.82;61.16
36386;BME280;24125;47.482;8.770;2023-02-04T13:04:00;97850.09;;;13.89;60.67
36386;BME280;24125;47.482;8.770;2023-02-04T13:06:33;97851.56;;;13.95;60.54
36386;BME280;24125;47.482;8.770;2023-02-04T13:09:06;97850.94;;;13.98;59.49
36386;BME280;24125;47.482;8.770;2023-02-04T13:11:41;97853.78;;;14.02;59.18
36386;BME280;24125;47.482;8.770;2023-02-04T13:14:14;97858.38;;;14.02;59.30
36386;BME280;24125;47.482;8.770;2023-02-04T13:16:47;97849.53;;;14.01;58.93
36386;BME280;24125;47.482;8.770;2023-02-04T13:19:20;97848.56;;;13.97;59.04
36386;BME280;24125;47.482;8.770;2023-02-04T13:21:52;97853.75;;;13.93;59.09
36386;BME280;24125;47.482;8.770;2023-02-04T13:24:26;97865.56;;;13.92;59.24
36386;BME280;24125;47.482;8.770;2023-02-04T13:27:00;97867.16;;;13.93;59.51
36386;BME280;24125;47.482;8.770;2023-02-04T13:29:33;97862.59;;;13.94;59.93
36386;BME280;24125;47.482;8.770;2023-02-04T13:32:06;97862.78;;;13.97;59.09
36386;BME280;24125;47.482;8.770;2023-02-04T13:34:40;97855.53;;;13.98;58.90